Enchantment of the Seas — C6FZ7 — position and weather

sailwx.info

Track history (hours):
 
Tides and Currents Weather Stations Pressure Air Temp Water Temp Dewpoint Dewpoint Depression Visibility Wind Speed Wind Dir Waves Ship Positions

Enchantment of the Seas (Bahamas)

Last reported at 2018-Jan-18 06:51 UTC. Time now 2018-Jan-19 03:36 UTC.
Position N 25°23' W 077°25'.

Type: Passenger vessel. MMSI: 311733000.

Date/timePositionNaut miles runAvg speedWind from/ knotsBaromVisibWave heightAir tempDewpointWater temp
2018-Jan-18 06:51N 25°23' W 077°25'4 8.4
2018-Jan-18 06:22N 25°19' W 077°24'3 8.4
2018-Jan-18 06:00N 25°16' W 077°23'4 8.4
2018-Jan-18 05:30N 25°12' W 077°23'4 8.8
2018-Jan-18 05:00N 25°08' W 077°22'3 6.3
2018-Jan-18 04:29N 25°05' W 077°21'0 0.0
2018-Jan-18 03:59N 25°05' W 077°21'0 0.0
2018-Jan-18 03:29N 25°05' W 077°21'0 0.0
2018-Jan-18 02:59N 25°05' W 077°21'0 0.0
2018-Jan-18 02:29N 25°05' W 077°21'0 0.0
2018-Jan-18 01:59N 25°05' W 077°21'0 0.0
2018-Jan-18 01:29N 25°05' W 077°21'0 0.0
2018-Jan-18 00:59N 25°05' W 077°21'0 0.0
2018-Jan-17 23:59N 25°05' W 077°21'0 0.0
2018-Jan-17 23:56N 25°05' W 077°21'115 7.2
2018-Jan-17 08:00N 26°00' W 079°12'   020 / 171021.0 19.017.524.0
2018-Jan-12 15:00N 25°47' W 080°11'0 0.0
2018-Jan-12 14:30N 25°47' W 080°11'0 0.0
2018-Jan-12 13:58N 25°47' W 080°11'0 0.0
2018-Jan-12 13:28N 25°47' W 080°11'0 0.0
2018-Jan-12 12:58N 25°47' W 080°11'0 0.0
2018-Jan-12 12:28N 25°47' W 080°11'0 0.6
2018-Jan-12 12:00N 25°47' W 080°11'2 4.8
2018-Jan-12 11:30N 25°46' W 080°08'510.6
2018-Jan-12 11:00N 25°47' W 080°03'5 9.3
2018-Jan-12 10:30N 25°45' W 079°58'713.5
2018-Jan-12 10:00N 25°38' W 079°58'714.2
2018-Jan-12 09:30N 25°31' W 079°59'714.6
2018-Jan-12 09:00N 25°24' W 080°01'814.5
2018-Jan-12 08:29N 25°16' W 080°03'6614.8
2018-Jan-12 04:00N 24°24' W 080°48'621.2 150 / 191016.410.8 23.020.1
2018-Jan-12 03:43N 24°26' W 080°54'415.4
2018-Jan-12 03:27N 24°25' W 080°58'716.1
2018-Jan-12 03:00N 24°22' W 081°06'916.2
2018-Jan-12 02:27N 24°20' W 081°15'2215.9
2018-Jan-12 01:04N 24°15' W 081°39'115.6
2018-Jan-12 01:00N 24°16' W 081°40'815.6
2018-Jan-12 00:30N 24°20' W 081°46'612.8
2018-Jan-12 00:00N 24°26' W 081°49'611.3
2018-Jan-11 23:30N 24°32' W 081°49'2 2.9
2018-Jan-11 22:57N 24°34' W 081°49'0 0.0
2018-Jan-11 22:30N 24°34' W 081°49'105 5.9
2018-Jan-11 04:44N 25°15' W 080°02'416.6
2018-Jan-11 04:30N 25°18' W 079°59'816.6
2018-Jan-11 04:00N 25°24' W 079°53'816.6
2018-Jan-11 03:30N 25°31' W 079°47'816.5
2018-Jan-11 03:00N 25°37' W 079°41'917.2
2018-Jan-11 02:30N 25°43' W 079°34'918.1
2018-Jan-11 02:00N 25°49' W 079°27'3171.2
2018-Jan-11 02:00N 25°48' W 079°24'817.3 120 / 131016.4 5.4 20.018.5
2018-Jan-11 01:30N 25°56' W 079°21'917.1
2018-Jan-11 00:59N 26°03' W 079°15'115 6.1
2018-Jan-10 06:00N 25°18' W 077°18'131 4.4 100 / 331015.0 5.4 22.020.625.0
2018-Jan-09 00:29N 25°60' W 079°36'714.7
2018-Jan-09 00:00N 25°58' W 079°43'714.9
2018-Jan-08 23:30N 25°57' W 079°51'815.1
2018-Jan-08 23:00N 25°52' W 079°58'713.9
2018-Jan-08 22:30N 25°47' W 080°04'5 9.9
2018-Jan-08 22:00N 25°46' W 080°09'2 3.2
2018-Jan-08 21:30N 25°47' W 080°11'0 0.1
2018-Jan-08 21:00N 25°47' W 080°11'0 0.0
2018-Jan-08 20:30N 25°47' W 080°11'0 0.0
2018-Jan-08 20:00N 25°47' W 080°11'0 0.0
2018-Jan-08 19:30N 25°47' W 080°11'0 0.0
2018-Jan-08 19:00N 25°47' W 080°11'0 0.0
2018-Jan-08 18:30N 25°47' W 080°11'0 0.0
2018-Jan-08 18:00N 25°47' W 080°11'0 0.0
2018-Jan-08 17:30N 25°47' W 080°11'0 0.0
2018-Jan-08 17:00N 25°47' W 080°11'0 0.0
2018-Jan-08 16:30N 25°47' W 080°11'0 0.0
2018-Jan-08 16:00N 25°47' W 080°11'0 0.0
2018-Jan-08 15:30N 25°47' W 080°11'0 0.0
2018-Jan-08 15:00N 25°47' W 080°11'0 0.0
2018-Jan-08 14:30N 25°47' W 080°11'0 0.0
2018-Jan-08 14:00N 25°47' W 080°11'0 0.0
2018-Jan-08 13:30N 25°47' W 080°11'0 0.0
2018-Jan-08 13:00N 25°47' W 080°11'0 0.0
2018-Jan-08 12:30N 25°47' W 080°11'0 0.0
2018-Jan-08 12:00N 25°47' W 080°11'2 3.7
2018-Jan-08 11:30N 25°46' W 080°09'510.9
2018-Jan-08 11:00N 25°46' W 080°03'714.1
2018-Jan-08 10:30N 25°50' W 079°56'714.3
2018-Jan-08 10:00N 25°54' W 079°49'813.4
2018-Jan-08 09:26N 25°57' W 079°41'1611.0
2018-Jan-08 08:00N 26°00' W 079°24'   050 / 161022.0 5.4 18.018.025.0
Track history (hours):
 
Tides and Currents Weather Stations Pressure Air Temp Water Temp Dewpoint Dewpoint Depression Visibility Wind Speed Wind Dir Waves Ship Positions

Enchantment of the Seas (Bahamas)

Last reported at 2018-Jan-18 06:51 UTC. Time now 2018-Jan-19 03:36 UTC.
Position N 25°23' W 077°25'.

Type: Passenger vessel. MMSI: 311733000.

Date/timePositionNaut miles runAvg speedWind from/ knotsBaromVisibWave heightAir tempDewpointWater temp
2018-Jan-18 06:51N 25°23' W 077°25'4 8.4
2018-Jan-18 06:22N 25°19' W 077°24'3 8.4
2018-Jan-18 06:00N 25°16' W 077°23'4 8.4
2018-Jan-18 05:30N 25°12' W 077°23'4 8.8
2018-Jan-18 05:00N 25°08' W 077°22'3 6.3
2018-Jan-18 04:29N 25°05' W 077°21'0 0.0
2018-Jan-18 03:59N 25°05' W 077°21'0 0.0
2018-Jan-18 03:29N 25°05' W 077°21'0 0.0
2018-Jan-18 02:59N 25°05' W 077°21'0 0.0
2018-Jan-18 02:29N 25°05' W 077°21'0 0.0
2018-Jan-18 01:59N 25°05' W 077°21'0 0.0
2018-Jan-18 01:29N 25°05' W 077°21'0 0.0
2018-Jan-18 00:59N 25°05' W 077°21'0 0.0
2018-Jan-17 23:59N 25°05' W 077°21'0 0.0
2018-Jan-17 23:56N 25°05' W 077°21'115 7.2
2018-Jan-17 08:00N 26°00' W 079°12'   020 / 171021.0 19.017.524.0
2018-Jan-12 15:00N 25°47' W 080°11'0 0.0
2018-Jan-12 14:30N 25°47' W 080°11'0 0.0
2018-Jan-12 13:58N 25°47' W 080°11'0 0.0
2018-Jan-12 13:28N 25°47' W 080°11'0 0.0
2018-Jan-12 12:58N 25°47' W 080°11'0 0.0
2018-Jan-12 12:28N 25°47' W 080°11'0 0.6
2018-Jan-12 12:00N 25°47' W 080°11'2 4.8
2018-Jan-12 11:30N 25°46' W 080°08'510.6
2018-Jan-12 11:00N 25°47' W 080°03'5 9.3
2018-Jan-12 10:30N 25°45' W 079°58'713.5
2018-Jan-12 10:00N 25°38' W 079°58'714.2
2018-Jan-12 09:30N 25°31' W 079°59'714.6
2018-Jan-12 09:00N 25°24' W 080°01'814.5
2018-Jan-12 08:29N 25°16' W 080°03'6614.8
2018-Jan-12 04:00N 24°24' W 080°48'621.2 150 / 191016.410.8 23.020.1
2018-Jan-12 03:43N 24°26' W 080°54'415.4
2018-Jan-12 03:27N 24°25' W 080°58'716.1
2018-Jan-12 03:00N 24°22' W 081°06'916.2
2018-Jan-12 02:27N 24°20' W 081°15'2215.9
2018-Jan-12 01:04N 24°15' W 081°39'115.6
2018-Jan-12 01:00N 24°16' W 081°40'815.6
2018-Jan-12 00:30N 24°20' W 081°46'612.8
2018-Jan-12 00:00N 24°26' W 081°49'611.3
2018-Jan-11 23:30N 24°32' W 081°49'2 2.9
2018-Jan-11 22:57N 24°34' W 081°49'0 0.0
2018-Jan-11 22:30N 24°34' W 081°49'105 5.9
2018-Jan-11 04:44N 25°15' W 080°02'416.6
2018-Jan-11 04:30N 25°18' W 079°59'816.6
2018-Jan-11 04:00N 25°24' W 079°53'816.6
2018-Jan-11 03:30N 25°31' W 079°47'816.5
2018-Jan-11 03:00N 25°37' W 079°41'917.2
2018-Jan-11 02:30N 25°43' W 079°34'918.1
2018-Jan-11 02:00N 25°49' W 079°27'3171.2
2018-Jan-11 02:00N 25°48' W 079°24'817.3 120 / 131016.4 5.4 20.018.5
2018-Jan-11 01:30N 25°56' W 079°21'917.1
2018-Jan-11 00:59N 26°03' W 079°15'115 6.1
2018-Jan-10 06:00N 25°18' W 077°18'131 4.4 100 / 331015.0 5.4 22.020.625.0
2018-Jan-09 00:29N 25°60' W 079°36'714.7
2018-Jan-09 00:00N 25°58' W 079°43'714.9
2018-Jan-08 23:30N 25°57' W 079°51'815.1
2018-Jan-08 23:00N 25°52' W 079°58'713.9
2018-Jan-08 22:30N 25°47' W 080°04'5 9.9
2018-Jan-08 22:00N 25°46' W 080°09'2 3.2
2018-Jan-08 21:30N 25°47' W 080°11'0 0.1
2018-Jan-08 21:00N 25°47' W 080°11'0 0.0
2018-Jan-08 20:30N 25°47' W 080°11'0 0.0
2018-Jan-08 20:00N 25°47' W 080°11'0 0.0
2018-Jan-08 19:30N 25°47' W 080°11'0 0.0
2018-Jan-08 19:00N 25°47' W 080°11'0 0.0
2018-Jan-08 18:30N 25°47' W 080°11'0 0.0
2018-Jan-08 18:00N 25°47' W 080°11'0 0.0
2018-Jan-08 17:30N 25°47' W 080°11'0 0.0
2018-Jan-08 17:00N 25°47' W 080°11'0 0.0
2018-Jan-08 16:30N 25°47' W 080°11'0 0.0
2018-Jan-08 16:00N 25°47' W 080°11'0 0.0
2018-Jan-08 15:30N 25°47' W 080°11'0 0.0
2018-Jan-08 15:00N 25°47' W 080°11'0 0.0
2018-Jan-08 14:30N 25°47' W 080°11'0 0.0
2018-Jan-08 14:00N 25°47' W 080°11'0 0.0
2018-Jan-08 13:30N 25°47' W 080°11'0 0.0
2018-Jan-08 13:00N 25°47' W 080°11'0 0.0
2018-Jan-08 12:30N 25°47' W 080°11'0 0.0
2018-Jan-08 12:00N 25°47' W 080°11'2 3.7
2018-Jan-08 11:30N 25°46' W 080°09'510.9
2018-Jan-08 11:00N 25°46' W 080°03'714.1
2018-Jan-08 10:30N 25°50' W 079°56'714.3
2018-Jan-08 10:00N 25°54' W 079°49'813.4
2018-Jan-08 09:26N 25°57' W 079°41'1611.0
2018-Jan-08 08:00N 26°00' W 079°24'   050 / 161022.0 5.4 18.018.025.0

Dump ship's entire track history